DLH989 KEWR-EHAM
Flight info
| Callsign | DLH989 |
|---|---|
| Flight time | N/A |
| Altitude | 29000 |
| Route | MERIT HFD PUT J42 BOS BRADD NICSO 4850N H4940 H4930 H4920 KOGAD BIMGO TAKAS ALUTA DAWLY L620 MID UM185 KOBBI M197 REDFA |
| Aircraft | A343/H-SDE2E3FGHIJ4J5M1RWXY/LB1D1 |
Departure
| Time | 2026-04-25 16:09 |
|---|---|
| Airport | Newark Liberty International Airport (KEWR) |
Arrival
| Time | N/A |
|---|---|
| Airport | Amsterdam Airport Schiphol (EHAM) |
| Time | Latitude | Longitude | Altitude | Speed | Heading |
|---|---|---|---|---|---|
| 2026-04-25 15:54 | 40.68634 | -74.18563 | 25 ft | 0 kts | 359° |
| 2026-04-25 15:57 | 40.68622 | -74.18562 | 24 ft | 2 kts | 24° |
| 2026-04-25 15:57 | 40.68606 | -74.18569 | 28 ft | 2 kts | 38° |
| 2026-04-25 15:57 | 40.68594 | -74.18584 | 29 ft | 2 kts | 68° |
| 2026-04-25 15:58 | 40.68590 | -74.18605 | 29 ft | 2 kts | 98° |
| 2026-04-25 15:58 | 40.68590 | -74.18612 | 27 ft | 0 kts | 109° |
| 2026-04-25 15:58 | 40.68590 | -74.18610 | 27 ft | 1 kts | 110° |
| 2026-04-25 15:58 | 40.68580 | -74.18588 | 29 ft | 4 kts | 122° |
| 2026-04-25 15:59 | 40.68571 | -74.18572 | 28 ft | 1 kts | 125° |
| 2026-04-25 15:59 | 40.68559 | -74.18549 | 28 ft | 5 kts | 124° |
| 2026-04-25 15:59 | 40.68538 | -74.18504 | 26 ft | 7 kts | 118° |
| 2026-04-25 15:59 | 40.68517 | -74.18428 | 27 ft | 12 kts | 108° |
| 2026-04-25 16:00 | 40.68487 | -74.18302 | 27 ft | 17 kts | 102° |
| 2026-04-25 16:00 | 40.68477 | -74.18192 | 27 ft | 19 kts | 96° |
| 2026-04-25 16:00 | 40.68460 | -74.18079 | 29 ft | 6 kts | 136° |
| 2026-04-25 16:00 | 40.68400 | -74.18062 | 25 ft | 12 kts | 172° |
| 2026-04-25 16:01 | 40.68360 | -74.17984 | 26 ft | 12 kts | 82° |
| 2026-04-25 16:01 | 40.68361 | -74.17854 | 25 ft | 16 kts | 104° |
| 2026-04-25 16:01 | 40.68298 | -74.17724 | 29 ft | 18 kts | 146° |
| 2026-04-25 16:01 | 40.68235 | -74.17667 | 27 ft | 0 kts | 131° |
| 2026-04-25 16:02 | 40.68224 | -74.17664 | 25 ft | 1 kts | 171° |
| 2026-04-25 16:03 | 40.68204 | -74.17677 | 25 ft | 7 kts | 207° |
| 2026-04-25 16:03 | 40.68130 | -74.17725 | 25 ft | 17 kts | 206° |
| 2026-04-25 16:03 | 40.67996 | -74.17812 | 26 ft | 26 kts | 206° |
| 2026-04-25 16:03 | 40.67825 | -74.17921 | 27 ft | 27 kts | 206° |
| 2026-04-25 16:04 | 40.67779 | -74.17950 | 31 ft | 2 kts | 206° |
| 2026-04-25 16:04 | 40.67749 | -74.17970 | 29 ft | 8 kts | 206° |
| 2026-04-25 16:04 | 40.67686 | -74.18010 | 26 ft | 13 kts | 206° |
| 2026-04-25 16:04 | 40.67628 | -74.18036 | 26 ft | 0 kts | 184° |
| 2026-04-25 16:05 | 40.67610 | -74.18034 | 31 ft | 2 kts | 172° |
| 2026-04-25 16:07 | 40.67609 | -74.18034 | 31 ft | 0 kts | 172° |
| 2026-04-25 16:07 | 40.67603 | -74.18028 | 30 ft | 0 kts | 150° |
| 2026-04-25 16:07 | 40.67594 | -74.18018 | 29 ft | 5 kts | 140° |
| 2026-04-25 16:08 | 40.67578 | -74.17954 | 26 ft | 10 kts | 79° |
| 2026-04-25 16:08 | 40.67642 | -74.17878 | 30 ft | 17 kts | 26° |
| 2026-04-25 16:08 | 40.67834 | -74.17757 | 24 ft | 60 kts | 26° |
| 2026-04-25 16:08 | 40.68423 | -74.17383 | 27 ft | 128 kts | 26° |
| 2026-04-25 16:09 | 40.69405 | -74.16757 | 51 ft | 183 kts | 29° |
| 2026-04-25 16:09 | 40.70623 | -74.16000 | 643 ft | 202 kts | 30° |
| 2026-04-25 16:09 | 40.72004 | -74.15246 | 1294 ft | 234 kts | 17° |
| 2026-04-25 16:09 | 40.73643 | -74.14589 | 2016 ft | 255 kts | 33° |
| 2026-04-25 16:10 | 40.74978 | -74.12986 | 2634 ft | 261 kts | 58° |
| 2026-04-25 16:10 | 40.75899 | -74.11015 | 2903 ft | 248 kts | 66° |
| 2026-04-25 16:10 | 40.76761 | -74.09034 | 2925 ft | 252 kts | 57° |
| 2026-04-25 16:10 | 40.78135 | -74.07557 | 3081 ft | 261 kts | 32° |
| 2026-04-25 16:11 | 40.79800 | -74.06521 | 3638 ft | 268 kts | 27° |
| 2026-04-25 16:11 | 40.81520 | -74.05505 | 4401 ft | 272 kts | 27° |
| 2026-04-25 16:11 | 40.83222 | -74.04452 | 4875 ft | 276 kts | 27° |
| 2026-04-25 16:11 | 40.84761 | -74.02955 | 5205 ft | 276 kts | 49° |
| 2026-04-25 16:12 | 40.85944 | -74.00925 | 5826 ft | 283 kts | 56° |
| 2026-04-25 16:12 | 40.87008 | -73.98732 | 6723 ft | 285 kts | 57° |
| 2026-04-25 16:12 | 40.88028 | -73.96475 | 7624 ft | 286 kts | 57° |
| 2026-04-25 16:12 | 40.88697 | -73.94975 | 8211 ft | 287 kts | 57° |
| 2026-04-25 16:13 | 40.90061 | -73.91905 | 9290 ft | 292 kts | 57° |
| 2026-04-25 16:13 | 40.91094 | -73.89572 | 9825 ft | 295 kts | 57° |
| 2026-04-25 16:13 | 40.92119 | -73.87256 | 10000 ft | 297 kts | 57° |
| 2026-04-25 16:13 | 40.93270 | -73.84954 | 10009 ft | 296 kts | 49° |
| 2026-04-25 16:14 | 40.94528 | -73.82836 | 10164 ft | 300 kts | 49° |
| 2026-04-25 16:14 | 40.95883 | -73.80625 | 10390 ft | 319 kts | 48° |
| 2026-04-25 16:14 | 40.97349 | -73.78294 | 10641 ft | 339 kts | 47° |
| 2026-04-25 16:14 | 40.98906 | -73.75852 | 10871 ft | 357 kts | 47° |
| 2026-04-25 16:15 | 41.00550 | -73.73287 | 11154 ft | 372 kts | 47° |
| 2026-04-25 16:15 | 41.02246 | -73.70642 | 11636 ft | 381 kts | 47° |
| 2026-04-25 16:15 | 41.03975 | -73.67936 | 12187 ft | 388 kts | 47° |
| 2026-04-25 16:15 | 41.05731 | -73.65183 | 12756 ft | 394 kts | 47° |
| 2026-04-25 16:16 | 41.07479 | -73.62437 | 13465 ft | 397 kts | 46° |
| 2026-04-25 16:16 | 41.09269 | -73.59621 | 14098 ft | 401 kts | 46° |
| 2026-04-25 16:16 | 41.11077 | -73.56774 | 14656 ft | 406 kts | 46° |
| 2026-04-25 16:16 | 41.12906 | -73.53892 | 15202 ft | 411 kts | 46° |
| 2026-04-25 16:17 | 41.14758 | -73.50972 | 15761 ft | 416 kts | 46° |
| 2026-04-25 16:17 | 41.16628 | -73.48021 | 16344 ft | 420 kts | 46° |
| 2026-04-25 16:17 | 41.18518 | -73.45035 | 16890 ft | 425 kts | 46° |
| 2026-04-25 16:17 | 41.20424 | -73.42022 | 17464 ft | 429 kts | 46° |
| 2026-04-25 16:18 | 41.22360 | -73.38959 | 17986 ft | 435 kts | 46° |
| 2026-04-25 16:18 | 41.22992 | -73.37959 | 18143 ft | 437 kts | 46° |
| 2026-04-25 16:18 | 41.26274 | -73.32756 | 18944 ft | 445 kts | 46° |
| 2026-04-25 16:18 | 41.28260 | -73.29600 | 19503 ft | 447 kts | 45° |
| 2026-04-25 16:19 | 41.30253 | -73.26425 | 20007 ft | 450 kts | 45° |
| 2026-04-25 16:19 | 41.32267 | -73.23219 | 20556 ft | 452 kts | 45° |
| 2026-04-25 16:19 | 41.34280 | -73.20012 | 21112 ft | 453 kts | 45° |
| 2026-04-25 16:20 | 41.37601 | -73.14581 | 21998 ft | 459 kts | 49° |
| 2026-04-25 16:20 | 41.39961 | -73.09781 | 22708 ft | 465 kts | 52° |
| 2026-04-25 16:20 | 41.43297 | -73.02389 | 23682 ft | 471 kts | 53° |
| 2026-04-25 16:21 | 41.44950 | -72.98615 | 24077 ft | 473 kts | 54° |
| 2026-04-25 16:21 | 41.46553 | -72.94942 | 24419 ft | 477 kts | 53° |
| 2026-04-25 16:21 | 41.48222 | -72.91123 | 24768 ft | 479 kts | 53° |
| 2026-04-25 16:21 | 41.49907 | -72.87272 | 25144 ft | 481 kts | 53° |
| 2026-04-25 16:22 | 41.51600 | -72.83407 | 25489 ft | 483 kts | 53° |
| 2026-04-25 16:22 | 41.53301 | -72.79524 | 25847 ft | 486 kts | 53° |
| 2026-04-25 16:22 | 41.55013 | -72.75616 | 26234 ft | 488 kts | 53° |
| 2026-04-25 16:22 | 41.56725 | -72.71706 | 26585 ft | 490 kts | 53° |
| 2026-04-25 16:23 | 41.58449 | -72.67764 | 26926 ft | 492 kts | 53° |
| 2026-04-25 16:23 | 41.60154 | -72.63861 | 27238 ft | 494 kts | 53° |
| 2026-04-25 16:23 | 41.61889 | -72.59882 | 27576 ft | 496 kts | 52° |
| 2026-04-25 16:23 | 41.63629 | -72.55887 | 27866 ft | 498 kts | 52° |
| 2026-04-25 16:24 | 41.65380 | -72.51885 | 28203 ft | 499 kts | 52° |
| 2026-04-25 16:24 | 41.67263 | -72.47682 | 28526 ft | 501 kts | 51° |
| 2026-04-25 16:24 | 41.70285 | -72.41021 | 28936 ft | 506 kts | 51° |
| 2026-04-25 16:24 | 41.72092 | -72.37038 | 29109 ft | 509 kts | 51° |
| 2026-04-25 16:25 | 41.73949 | -72.32929 | 29135 ft | 509 kts | 51° |
| 2026-04-25 16:25 | 41.77563 | -72.24880 | 29135 ft | 508 kts | 51° |
| 2026-04-25 16:26 | 41.81192 | -72.16761 | 29127 ft | 508 kts | 51° |
| 2026-04-25 16:26 | 41.84828 | -72.08604 | 29129 ft | 509 kts | 51° |
| 2026-04-25 16:27 | 41.88429 | -72.00506 | 29131 ft | 509 kts | 51° |
| 2026-04-25 16:27 | 41.92055 | -71.92331 | 29128 ft | 509 kts | 51° |
| 2026-04-25 16:28 | 41.95651 | -71.84196 | 29134 ft | 508 kts | 51° |
| 2026-04-25 16:28 | 41.99370 | -71.76166 | 29138 ft | 506 kts | 49° |
| 2026-04-25 16:29 | 42.03215 | -71.68212 | 29140 ft | 507 kts | 48° |
| 2026-04-25 16:29 | 42.07043 | -71.60231 | 29138 ft | 508 kts | 49° |
| 2026-04-25 16:30 | 42.10845 | -71.52208 | 29138 ft | 507 kts | 49° |
| 2026-04-25 16:30 | 42.14592 | -71.44251 | 29142 ft | 505 kts | 49° |
| 2026-04-25 16:31 | 42.18351 | -71.36253 | 29145 ft | 505 kts | 49° |
| 2026-04-25 16:31 | 42.22110 | -71.28237 | 29144 ft | 505 kts | 49° |
| 2026-04-25 16:32 | 42.25864 | -71.20212 | 29143 ft | 505 kts | 49° |
| 2026-04-25 16:32 | 42.29588 | -71.12229 | 29163 ft | 506 kts | 49° |
| 2026-04-25 16:33 | 42.33339 | -71.04167 | 29158 ft | 507 kts | 49° |
| 2026-04-25 16:33 | 42.36445 | -70.95486 | 29158 ft | 523 kts | 64° |
| 2026-04-25 16:34 | 42.38632 | -70.86114 | 29157 ft | 526 kts | 66° |
| 2026-04-25 16:34 | 42.40668 | -70.76591 | 29155 ft | 527 kts | 66° |
| 2026-04-25 16:35 | 42.42689 | -70.67060 | 29146 ft | 527 kts | 66° |
| 2026-04-25 16:35 | 42.44724 | -70.57533 | 29150 ft | 527 kts | 66° |
| 2026-04-25 16:36 | 42.46763 | -70.47999 | 29145 ft | 526 kts | 65° |
| 2026-04-25 16:36 | 42.48776 | -70.38555 | 29149 ft | 525 kts | 65° |
| 2026-04-25 16:37 | 42.50796 | -70.29036 | 29153 ft | 525 kts | 65° |
| 2026-04-25 16:37 | 42.52807 | -70.19517 | 29189 ft | 526 kts | 65° |
| 2026-04-25 16:38 | 42.54815 | -70.09967 | 29145 ft | 526 kts | 65° |
| 2026-04-25 16:38 | 42.56796 | -70.00492 | 29140 ft | 526 kts | 65° |
| 2026-04-25 16:39 | 42.58786 | -69.90934 | 29136 ft | 526 kts | 65° |
| 2026-04-25 16:39 | 42.60769 | -69.81368 | 29140 ft | 526 kts | 65° |
| 2026-04-25 16:40 | 42.62743 | -69.71803 | 29141 ft | 527 kts | 65° |
| 2026-04-25 16:40 | 42.64700 | -69.62276 | 29139 ft | 527 kts | 65° |
| 2026-04-25 16:41 | 42.66660 | -69.52682 | 29170 ft | 527 kts | 65° |
| 2026-04-25 16:41 | 42.69589 | -69.38268 | 29134 ft | 527 kts | 65° |
| 2026-04-25 16:42 | 42.71528 | -69.28666 | 29142 ft | 527 kts | 65° |
| 2026-04-25 16:42 | 42.73464 | -69.19035 | 29164 ft | 526 kts | 65° |
| 2026-04-25 16:43 | 42.75370 | -69.09496 | 29126 ft | 525 kts | 65° |
| 2026-04-25 16:43 | 42.77278 | -68.99919 | 29122 ft | 525 kts | 65° |
| 2026-04-25 16:44 | 42.79174 | -68.90357 | 29121 ft | 525 kts | 65° |
| 2026-04-25 16:44 | 42.81067 | -68.80761 | 29116 ft | 524 kts | 65° |
| 2026-04-25 16:45 | 42.82944 | -68.71189 | 29116 ft | 523 kts | 65° |
| 2026-04-25 16:45 | 42.84815 | -68.61613 | 29116 ft | 523 kts | 65° |
| 2026-04-25 16:46 | 42.86678 | -68.52032 | 29153 ft | 523 kts | 65° |
| 2026-04-25 16:46 | 42.87904 | -68.45696 | 29113 ft | 521 kts | 65° |
| 2026-04-25 16:47 | 42.90350 | -68.32985 | 29122 ft | 520 kts | 65° |
| 2026-04-25 16:47 | 42.92179 | -68.23443 | 29108 ft | 520 kts | 65° |
| 2026-04-25 16:48 | 42.93999 | -68.13895 | 29128 ft | 519 kts | 65° |
| 2026-04-25 16:48 | 42.95803 | -68.04374 | 29103 ft | 517 kts | 66° |
| 2026-04-25 16:49 | 42.97582 | -67.94945 | 29103 ft | 516 kts | 66° |
| 2026-04-25 16:49 | 42.99368 | -67.85440 | 29103 ft | 516 kts | 66° |
| 2026-04-25 16:50 | 43.00839 | -67.77561 | 29100 ft | 514 kts | 67° |
| 2026-04-25 16:50 | 43.02894 | -67.66500 | 29099 ft | 513 kts | 67° |
| 2026-04-25 16:51 | 43.04632 | -67.57118 | 29093 ft | 513 kts | 67° |
| 2026-04-25 16:51 | 43.05798 | -67.50793 | 29090 ft | 513 kts | 67° |
| 2026-04-25 16:52 | 43.08108 | -67.38191 | 29087 ft | 513 kts | 67° |
| 2026-04-25 16:52 | 43.09828 | -67.28738 | 29094 ft | 510 kts | 69° |
| 2026-04-25 16:53 | 43.12358 | -67.14739 | 29080 ft | 504 kts | 69° |
| 2026-04-25 16:54 | 43.14034 | -67.05432 | 29073 ft | 503 kts | 69° |
| 2026-04-25 16:54 | 43.16144 | -66.96371 | 29074 ft | 495 kts | 62° |
| 2026-04-25 16:55 | 43.18709 | -66.87697 | 29092 ft | 494 kts | 61° |
| 2026-04-25 16:55 | 43.21355 | -66.79033 | 29065 ft | 491 kts | 62° |
| 2026-04-25 16:56 | 43.23978 | -66.70415 | 29065 ft | 489 kts | 63° |
| 2026-04-25 16:56 | 43.26896 | -66.60734 | 29056 ft | 487 kts | 63° |
| 2026-04-25 16:57 | 43.29475 | -66.52135 | 29055 ft | 488 kts | 63° |
| 2026-04-25 16:57 | 43.32041 | -66.43538 | 29050 ft | 485 kts | 64° |
| 2026-04-25 16:58 | 43.34578 | -66.35020 | 29040 ft | 484 kts | 64° |
| 2026-04-25 16:58 | 43.37121 | -66.26460 | 29039 ft | 484 kts | 64° |
| 2026-04-25 16:59 | 43.39659 | -66.17884 | 29030 ft | 484 kts | 65° |
| 2026-04-25 16:59 | 43.42181 | -66.09327 | 29031 ft | 481 kts | 65° |
| 2026-04-25 17:00 | 43.44262 | -66.02252 | 29024 ft | 479 kts | 65° |
| 2026-04-25 17:00 | 43.47178 | -65.92306 | 29018 ft | 480 kts | 65° |
| 2026-04-25 17:01 | 43.49650 | -65.83839 | 29011 ft | 480 kts | 65° |
| 2026-04-25 17:01 | 43.52131 | -65.75311 | 29002 ft | 480 kts | 65° |
| 2026-04-25 17:02 | 43.54608 | -65.66769 | 28994 ft | 479 kts | 66° |
| 2026-04-25 17:02 | 43.57063 | -65.58257 | 28993 ft | 477 kts | 66° |
| 2026-04-25 17:03 | 43.59494 | -65.49819 | 28987 ft | 476 kts | 66° |
| 2026-04-25 17:03 | 43.61936 | -65.41323 | 28989 ft | 477 kts | 66° |
| 2026-04-25 17:04 | 43.64371 | -65.32816 | 28978 ft | 476 kts | 66° |
| 2026-04-25 17:04 | 43.66793 | -65.24319 | 28975 ft | 474 kts | 66° |
| 2026-04-25 17:05 | 43.69195 | -65.15854 | 28976 ft | 474 kts | 67° |
| 2026-04-25 17:05 | 43.72769 | -65.03212 | 28973 ft | 470 kts | 67° |
| 2026-04-25 17:06 | 43.75140 | -64.94801 | 28977 ft | 469 kts | 67° |
| 2026-04-25 17:06 | 43.77499 | -64.86401 | 28972 ft | 468 kts | 66° |
| 2026-04-25 17:07 | 43.79856 | -64.77990 | 28969 ft | 468 kts | 67° |
| 2026-04-25 17:07 | 43.82195 | -64.69628 | 28966 ft | 468 kts | 67° |
| 2026-04-25 17:08 | 43.84531 | -64.61213 | 28964 ft | 468 kts | 67° |
| 2026-04-25 17:08 | 43.86863 | -64.52773 | 28962 ft | 469 kts | 67° |
| 2026-04-25 17:09 | 43.89192 | -64.44338 | 28953 ft | 469 kts | 68° |
| 2026-04-25 17:09 | 43.91516 | -64.35896 | 28953 ft | 469 kts | 68° |
| 2026-04-25 17:10 | 43.93820 | -64.27493 | 28955 ft | 469 kts | 68° |
| 2026-04-25 17:10 | 43.96131 | -64.19035 | 28951 ft | 469 kts | 68° |
| 2026-04-25 17:11 | 43.98437 | -64.10564 | 28943 ft | 469 kts | 67° |
| 2026-04-25 17:11 | 44.00739 | -64.02078 | 28940 ft | 470 kts | 67° |
| 2026-04-25 17:12 | 44.03032 | -63.93590 | 28933 ft | 469 kts | 67° |
| 2026-04-25 17:12 | 44.05305 | -63.85152 | 28927 ft | 469 kts | 68° |
| 2026-04-25 17:13 | 44.06829 | -63.79482 | 28922 ft | 469 kts | 67° |
| 2026-04-25 17:13 | 44.09861 | -63.68153 | 28919 ft | 469 kts | 68° |
| 2026-04-25 17:14 | 44.12132 | -63.59628 | 28916 ft | 469 kts | 68° |
| 2026-04-25 17:14 | 44.14384 | -63.51160 | 28908 ft | 469 kts | 68° |
| 2026-04-25 17:15 | 44.16646 | -63.42629 | 28909 ft | 470 kts | 68° |
| 2026-04-25 17:15 | 44.18899 | -63.34075 | 28899 ft | 471 kts | 68° |
| 2026-04-25 17:16 | 44.21156 | -63.25475 | 28902 ft | 472 kts | 68° |
| 2026-04-25 17:16 | 44.23407 | -63.16881 | 28895 ft | 472 kts | 68° |
| 2026-04-25 17:17 | 44.25640 | -63.08327 | 28891 ft | 472 kts | 68° |
| 2026-04-25 17:17 | 44.27878 | -62.99717 | 28886 ft | 472 kts | 68° |
| 2026-04-25 17:18 | 44.30109 | -62.91104 | 28884 ft | 472 kts | 68° |
| 2026-04-25 17:18 | 44.32331 | -62.82481 | 28876 ft | 472 kts | 68° |
| 2026-04-25 17:19 | 44.34538 | -62.73901 | 28876 ft | 472 kts | 68° |
| 2026-04-25 17:19 | 44.36750 | -62.65261 | 28873 ft | 472 kts | 68° |
| 2026-04-25 17:20 | 44.38959 | -62.56601 | 28877 ft | 472 kts | 68° |
| 2026-04-25 17:20 | 44.41161 | -62.47959 | 28868 ft | 471 kts | 68° |
| 2026-04-25 17:21 | 44.43346 | -62.39311 | 28858 ft | 471 kts | 68° |
| 2026-04-25 17:21 | 44.45508 | -62.30735 | 28860 ft | 471 kts | 67° |